createdAt,value
2023-11-30T00:00:03.302Z,976.58
2023-11-30T00:01:03.233Z,976.67
2023-11-30T00:02:03.091Z,976.65
2023-11-30T00:03:03.091Z,976.65
2023-11-30T00:04:02.885Z,976.67
2023-11-30T00:05:02.791Z,976.71
2023-11-30T00:06:02.716Z,976.73
2023-11-30T00:07:02.613Z,976.69
2023-11-30T00:08:02.520Z,976.66
2023-11-30T00:09:02.491Z,976.64
2023-11-30T00:10:02.356Z,976.61
2023-11-30T00:11:02.267Z,976.56
2023-11-30T00:12:02.204Z,976.51
2023-11-30T00:13:02.104Z,976.53
2023-11-30T00:14:02.207Z,976.55
2023-11-30T00:15:01.970Z,976.51
2023-11-30T00:16:01.828Z,976.49
2023-11-30T00:17:01.736Z,976.53
2023-11-30T00:18:01.742Z,976.54
2023-11-30T00:19:01.557Z,976.52
2023-11-30T00:20:01.469Z,976.51
2023-11-30T00:21:01.403Z,976.51
2023-11-30T00:22:01.301Z,976.51
2023-11-30T00:23:01.205Z,976.51
2023-11-30T00:24:01.142Z,976.53
2023-11-30T00:25:01.036Z,976.53
2023-11-30T00:26:00.965Z,976.51
2023-11-30T00:27:00.952Z,976.51
2023-11-30T00:28:00.785Z,976.51
2023-11-30T00:29:00.707Z,976.48
2023-11-30T00:30:00.634Z,976.48
2023-11-30T00:31:00.559Z,976.45
2023-11-30T00:32:00.432Z,976.48
2023-11-30T00:33:00.547Z,976.46
2023-11-30T00:34:00.238Z,976.50
2023-11-30T00:35:00.186Z,976.52
2023-11-30T00:36:00.232Z,976.53
2023-11-30T00:36:59.994Z,976.52
2023-11-30T00:37:59.888Z,976.53
2023-11-30T00:38:59.818Z,976.45
2023-11-30T00:39:59.713Z,976.44
2023-11-30T00:40:59.627Z,976.40
2023-11-30T00:41:59.599Z,976.39
2023-11-30T00:42:59.566Z,976.37
2023-11-30T00:43:59.371Z,976.37
2023-11-30T00:44:59.349Z,976.42
2023-11-30T00:46:06.952Z,976.37
2023-11-30T00:46:59.154Z,976.39
2023-11-30T00:47:59.076Z,976.39
2023-11-30T00:48:58.923Z,976.35
2023-11-30T00:49:58.846Z,976.37
2023-11-30T00:50:58.817Z,976.40
2023-11-30T00:51:58.748Z,976.39
2023-11-30T00:52:58.572Z,976.41
2023-11-30T00:53:58.504Z,976.46
2023-11-30T00:54:58.554Z,976.45
2023-11-30T00:55:58.308Z,976.45
2023-11-30T00:56:58.271Z,976.43
2023-11-30T00:57:58.130Z,976.44
2023-11-30T00:58:58.044Z,976.41
2023-11-30T00:59:58.003Z,976.43
2023-11-30T01:00:57.939Z,976.44
2023-11-30T01:01:57.846Z,976.45
2023-11-30T01:02:57.731Z,976.45
2023-11-30T01:03:57.642Z,976.38
2023-11-30T01:04:57.530Z,976.40
2023-11-30T01:05:57.457Z,976.37
2023-11-30T01:06:57.345Z,976.35
2023-11-30T01:07:57.252Z,976.37
2023-11-30T01:08:57.172Z,976.36
2023-11-30T01:09:57.081Z,976.35
2023-11-30T01:10:57.001Z,976.35
2023-11-30T01:11:56.929Z,976.34
2023-11-30T01:12:56.818Z,976.35
2023-11-30T01:13:56.755Z,976.32
2023-11-30T01:14:56.698Z,976.31
2023-11-30T01:15:56.597Z,976.27
2023-11-30T01:16:56.492Z,976.24
2023-11-30T01:17:56.448Z,976.26
2023-11-30T01:18:56.330Z,976.33
2023-11-30T01:19:56.193Z,976.33
2023-11-30T01:20:56.404Z,976.34
2023-11-30T01:21:56.017Z,976.37
2023-11-30T01:22:55.932Z,976.37
2023-11-30T01:23:55.894Z,976.34
2023-11-30T01:24:55.758Z,976.34
2023-11-30T01:25:55.670Z,976.34
2023-11-30T01:26:55.642Z,976.31
2023-11-30T01:27:55.501Z,976.29
2023-11-30T01:28:55.400Z,976.30
2023-11-30T01:29:55.346Z,976.30
2023-11-30T01:30:55.277Z,976.27
2023-11-30T01:31:55.140Z,976.27
2023-11-30T01:32:55.126Z,976.22
2023-11-30T01:33:55.008Z,976.21
2023-11-30T01:34:54.883Z,976.18
2023-11-30T01:35:54.906Z,976.16
2023-11-30T01:36:54.700Z,976.18
2023-11-30T01:37:54.611Z,976.19
2023-11-30T01:38:54.592Z,976.17
2023-11-30T01:39:54.435Z,976.18
2023-11-30T01:40:54.344Z,976.23
2023-11-30T01:41:54.297Z,976.23
2023-11-30T01:42:54.183Z,976.20
2023-11-30T01:43:54.092Z,976.17
2023-11-30T01:44:54.223Z,976.17
2023-11-30T01:46:02.626Z,976.13
2023-11-30T01:46:54.073Z,976.12
2023-11-30T01:47:53.786Z,976.14
2023-11-30T01:48:53.737Z,976.09
2023-11-30T01:49:53.583Z,976.12
2023-11-30T01:50:53.484Z,976.10
2023-11-30T01:51:53.377Z,976.03
2023-11-30T01:52:53.489Z,976.06
2023-11-30T01:53:53.230Z,975.98
2023-11-30T01:54:53.120Z,976.02
2023-11-30T01:55:53.034Z,976.00
2023-11-30T01:56:52.965Z,975.94
2023-11-30T01:57:52.850Z,975.95
2023-11-30T01:58:52.817Z,975.97
2023-11-30T01:59:52.689Z,975.98
2023-11-30T02:00:52.586Z,975.99
2023-11-30T02:01:52.612Z,975.98
2023-11-30T02:02:52.485Z,975.99
2023-11-30T02:03:52.630Z,975.98
2023-11-30T02:04:52.273Z,975.98
2023-11-30T02:05:52.169Z,975.99
2023-11-30T02:06:52.060Z,975.98
2023-11-30T02:07:51.967Z,975.91
2023-11-30T02:08:51.918Z,975.88
2023-11-30T02:09:51.792Z,975.85
2023-11-30T02:10:51.709Z,975.86
2023-11-30T02:11:51.666Z,975.82
2023-11-30T02:12:51.531Z,975.86
2023-11-30T02:13:51.453Z,975.86
2023-11-30T02:14:51.425Z,975.81
2023-11-30T02:15:51.360Z,975.81
2023-11-30T02:16:51.310Z,975.82
2023-11-30T02:17:51.155Z,975.82
2023-11-30T02:18:51.059Z,975.84
2023-11-30T02:19:50.918Z,975.82
2023-11-30T02:20:50.899Z,975.78
2023-11-30T02:21:50.748Z,975.79
2023-11-30T02:22:50.656Z,975.82
2023-11-30T02:23:50.597Z,975.80
2023-11-30T02:24:50.483Z,975.78
2023-11-30T02:25:50.392Z,975.75
2023-11-30T02:26:50.320Z,975.77
2023-11-30T02:27:50.517Z,975.71
2023-11-30T02:28:50.141Z,975.71
2023-11-30T02:29:50.163Z,975.72
2023-11-30T02:30:49.974Z,975.66
2023-11-30T02:31:49.885Z,975.64
2023-11-30T02:32:49.819Z,975.58
2023-11-30T02:33:49.728Z,975.58
2023-11-30T02:34:49.605Z,975.61
2023-11-30T02:35:49.521Z,975.54
2023-11-30T02:36:49.452Z,975.55
2023-11-30T02:37:49.340Z,975.55
2023-11-30T02:38:49.254Z,975.58
2023-11-30T02:39:49.220Z,975.58
2023-11-30T02:40:49.079Z,975.57
2023-11-30T02:41:48.992Z,975.63
2023-11-30T02:42:48.911Z,975.63
2023-11-30T02:43:48.824Z,975.67
2023-11-30T02:44:48.744Z,975.67
2023-11-30T02:45:48.689Z,975.70
2023-11-30T02:46:48.554Z,975.71
2023-11-30T02:47:48.479Z,975.72
2023-11-30T02:48:48.427Z,975.71
2023-11-30T02:49:48.293Z,975.69
2023-11-30T02:50:48.210Z,975.70
2023-11-30T02:51:48.116Z,975.74
2023-11-30T02:52:48.067Z,975.71
2023-11-30T02:53:47.941Z,975.72
2023-11-30T02:54:47.904Z,975.67
2023-11-30T02:55:47.773Z,975.64
2023-11-30T02:56:47.694Z,975.60
2023-11-30T02:57:47.592Z,975.54
2023-11-30T02:58:47.525Z,975.51
2023-11-30T02:59:47.420Z,975.46
2023-11-30T03:00:47.326Z,975.39
2023-11-30T03:01:47.332Z,975.37
2023-11-30T03:02:47.176Z,975.32
2023-11-30T03:03:47.085Z,975.29
2023-11-30T03:04:46.982Z,975.28
2023-11-30T03:05:46.910Z,975.27
2023-11-30T03:06:46.811Z,975.23
2023-11-30T03:07:46.716Z,975.24
2023-11-30T03:08:46.650Z,975.27
2023-11-30T03:09:46.538Z,975.30
2023-11-30T03:10:46.485Z,975.29
2023-11-30T03:11:46.371Z,975.29
2023-11-30T03:12:46.281Z,975.26
2023-11-30T03:13:46.203Z,975.25
2023-11-30T03:14:46.109Z,975.27
2023-11-30T03:15:46.017Z,975.28
2023-11-30T03:16:45.976Z,975.27
2023-11-30T03:17:45.886Z,975.30
2023-11-30T03:18:45.780Z,975.28
2023-11-30T03:19:45.668Z,975.31
2023-11-30T03:20:45.580Z,975.27
2023-11-30T03:21:45.513Z,975.26
2023-11-30T03:22:45.406Z,975.24
2023-11-30T03:23:45.329Z,975.25
2023-11-30T03:24:45.251Z,975.22
2023-11-30T03:25:45.441Z,975.16
2023-11-30T03:26:45.061Z,975.10
2023-11-30T03:27:44.967Z,975.11
2023-11-30T03:28:44.883Z,975.06
2023-11-30T03:29:44.794Z,975.02
2023-11-30T03:30:44.709Z,974.99
2023-11-30T03:31:44.656Z,974.97
2023-11-30T03:32:44.614Z,974.93
2023-11-30T03:33:44.559Z,974.91
2023-11-30T03:34:44.382Z,974.89
2023-11-30T03:35:44.269Z,974.88
2023-11-30T03:36:44.270Z,974.85
2023-11-30T03:37:44.112Z,974.89
2023-11-30T03:38:44.016Z,974.96
2023-11-30T03:39:43.923Z,974.96
2023-11-30T03:40:43.872Z,974.94
2023-11-30T03:41:43.754Z,974.95
2023-11-30T03:42:43.660Z,974.92
2023-11-30T03:43:43.573Z,974.93
2023-11-30T03:44:43.491Z,974.93
2023-11-30T03:45:43.464Z,974.96
2023-11-30T03:46:43.343Z,974.99
2023-11-30T03:47:43.244Z,975.02
2023-11-30T03:48:43.183Z,975.02
2023-11-30T03:49:43.054Z,975.07
2023-11-30T03:50:42.963Z,975.07
2023-11-30T03:51:42.906Z,975.08
2023-11-30T03:52:42.833Z,975.07
2023-11-30T03:53:42.703Z,975.06
2023-11-30T03:54:42.610Z,975.08
2023-11-30T03:55:42.524Z,975.02
2023-11-30T03:56:42.470Z,975.05
2023-11-30T03:57:42.359Z,975.01
2023-11-30T03:58:42.265Z,975.05
2023-11-30T03:59:42.180Z,975.03
2023-11-30T04:00:42.115Z,975.05
2023-11-30T04:01:42.047Z,975.06
2023-11-30T04:02:42.009Z,975.06
2023-11-30T04:03:41.921Z,975.10
2023-11-30T04:04:41.782Z,975.08
2023-11-30T04:05:41.654Z,975.09
2023-11-30T04:06:41.573Z,975.05
2023-11-30T04:07:41.475Z,975.07
2023-11-30T04:08:41.385Z,975.05
2023-11-30T04:09:41.329Z,975.06
2023-11-30T04:10:41.413Z,975.02
2023-11-30T04:11:41.277Z,974.98
2023-11-30T04:12:41.055Z,974.95
2023-11-30T04:13:40.960Z,974.97
2023-11-30T04:14:40.864Z,974.94
2023-11-30T04:15:40.787Z,974.92
2023-11-30T04:16:40.712Z,974.98
2023-11-30T04:17:40.642Z,974.94
2023-11-30T04:18:40.559Z,974.94
2023-11-30T04:19:40.427Z,974.90
2023-11-30T04:20:40.336Z,974.91
2023-11-30T04:21:40.451Z,974.86
2023-11-30T04:22:40.164Z,974.91
2023-11-30T04:23:40.247Z,974.87
2023-11-30T04:24:39.988Z,974.93
2023-11-30T04:25:39.959Z,974.95
2023-11-30T04:26:39.841Z,974.93
2023-11-30T04:27:40.043Z,974.90
2023-11-30T04:28:39.687Z,974.90
2023-11-30T04:29:39.555Z,974.94
2023-11-30T04:30:39.778Z,974.93
2023-11-30T04:31:39.399Z,974.92
2023-11-30T04:32:39.523Z,974.91
2023-11-30T04:33:39.318Z,974.90
2023-11-30T04:34:39.122Z,974.94
2023-11-30T04:35:39.039Z,974.89
2023-11-30T04:36:39.320Z,974.89
2023-11-30T04:37:38.873Z,974.93
2023-11-30T04:38:38.778Z,974.94
2023-11-30T04:39:38.692Z,974.93
2023-11-30T04:40:38.614Z,974.95
2023-11-30T04:41:38.512Z,974.92
2023-11-30T04:42:38.591Z,974.94
2023-11-30T04:43:38.404Z,974.95
2023-11-30T04:44:38.278Z,974.96
2023-11-30T04:45:38.226Z,974.93
2023-11-30T04:46:38.166Z,974.91
2023-11-30T04:47:38.031Z,974.89
2023-11-30T04:48:40.027Z,974.88
2023-11-30T04:49:37.816Z,974.86
2023-11-30T04:50:37.732Z,974.86
2023-11-30T04:51:37.669Z,974.85
2023-11-30T04:52:37.558Z,974.85
2023-11-30T04:53:37.465Z,974.80
2023-11-30T04:54:39.205Z,974.78
2023-11-30T04:55:37.297Z,974.78
2023-11-30T04:56:37.202Z,974.75
2023-11-30T04:57:37.169Z,974.77
2023-11-30T04:58:37.029Z,974.76
2023-11-30T04:59:36.947Z,974.74
2023-11-30T05:00:36.910Z,974.76
2023-11-30T05:01:37.422Z,974.76
2023-11-30T05:02:36.769Z,974.75
2023-11-30T05:03:36.894Z,974.71
2023-11-30T05:04:36.546Z,974.70
2023-11-30T05:05:36.419Z,974.71
2023-11-30T05:06:36.636Z,974.69
2023-11-30T05:07:36.251Z,974.67
2023-11-30T05:08:36.152Z,974.66
2023-11-30T05:09:36.065Z,974.63
2023-11-30T05:10:35.976Z,974.64
2023-11-30T05:11:35.891Z,974.64
2023-11-30T05:12:35.806Z,974.64
2023-11-30T05:13:35.717Z,974.63
2023-11-30T05:14:35.634Z,974.58
2023-11-30T05:15:35.566Z,974.61
2023-11-30T05:16:35.527Z,974.59
2023-11-30T05:17:35.388Z,974.58
2023-11-30T05:18:35.332Z,974.58
2023-11-30T05:19:35.198Z,974.63
2023-11-30T05:20:35.104Z,974.62
2023-11-30T05:21:35.031Z,974.60
2023-11-30T05:22:34.931Z,974.59
2023-11-30T05:23:34.949Z,974.63
2023-11-30T05:24:34.784Z,974.60
2023-11-30T05:25:34.673Z,974.61
2023-11-30T05:26:34.583Z,974.62
2023-11-30T05:27:34.494Z,974.64
2023-11-30T05:28:34.413Z,974.66
2023-11-30T05:29:34.328Z,974.70
2023-11-30T05:30:34.421Z,974.74
2023-11-30T05:31:34.160Z,974.73
2023-11-30T05:32:34.098Z,974.69
2023-11-30T05:33:34.011Z,974.72
2023-11-30T05:34:33.884Z,974.71
2023-11-30T05:35:33.797Z,974.68
2023-11-30T05:36:33.746Z,974.70
2023-11-30T05:37:33.623Z,974.65
2023-11-30T05:38:33.536Z,974.61
2023-11-30T05:39:33.473Z,974.64
2023-11-30T05:40:33.357Z,974.63
2023-11-30T05:41:33.285Z,974.59
2023-11-30T05:42:33.219Z,974.61
2023-11-30T05:43:34.548Z,974.60
2023-11-30T05:44:33.008Z,974.58
2023-11-30T05:45:32.960Z,974.61
2023-11-30T05:46:32.832Z,974.59
2023-11-30T05:47:32.794Z,974.64
2023-11-30T05:48:32.723Z,974.60
2023-11-30T05:49:32.625Z,974.61
2023-11-30T05:50:32.500Z,974.59
2023-11-30T05:51:32.420Z,974.54
2023-11-30T05:52:32.332Z,974.55
2023-11-30T05:53:32.250Z,974.55
2023-11-30T05:54:32.215Z,974.53
2023-11-30T05:55:32.049Z,974.53
2023-11-30T05:56:31.963Z,974.52
2023-11-30T05:57:31.930Z,974.53
2023-11-30T05:58:31.789Z,974.48
2023-11-30T05:59:31.711Z,974.49
2023-11-30T06:00:31.710Z,974.46
2023-11-30T06:01:31.635Z,974.50
2023-11-30T06:02:31.436Z,974.51
2023-11-30T06:03:31.562Z,974.54
2023-11-30T06:04:31.555Z,974.53
2023-11-30T06:05:31.429Z,974.49
2023-11-30T06:06:31.106Z,974.46
2023-11-30T06:07:30.999Z,974.44
2023-11-30T06:08:30.908Z,974.40
2023-11-30T06:09:30.846Z,974.36
2023-11-30T06:10:30.748Z,974.32
2023-11-30T06:11:30.649Z,974.34
2023-11-30T06:12:30.622Z,974.34
2023-11-30T06:13:30.484Z,974.32
2023-11-30T06:14:30.389Z,974.33
2023-11-30T06:15:30.351Z,974.28
2023-11-30T06:16:30.215Z,974.31
2023-11-30T06:17:30.125Z,974.26
2023-11-30T06:18:30.052Z,974.25
2023-11-30T06:19:29.949Z,974.21
2023-11-30T06:20:29.882Z,974.20
2023-11-30T06:21:29.781Z,974.18
2023-11-30T06:22:29.836Z,974.12
2023-11-30T06:23:29.597Z,974.14
2023-11-30T06:24:29.585Z,974.08
2023-11-30T06:25:29.623Z,974.07
2023-11-30T06:26:29.353Z,974.05
2023-11-30T06:27:29.359Z,974.02
2023-11-30T06:28:29.163Z,973.96
2023-11-30T06:29:29.070Z,973.92
2023-11-30T06:30:29.044Z,973.87
2023-11-30T06:31:28.933Z,973.84
2023-11-30T06:32:28.803Z,973.88
2023-11-30T06:33:28.770Z,973.88
2023-11-30T06:34:28.629Z,973.91
2023-11-30T06:35:28.549Z,973.95
2023-11-30T06:36:28.532Z,973.89
2023-11-30T06:37:28.404Z,973.91
2023-11-30T06:38:28.285Z,973.93
2023-11-30T06:39:28.235Z,973.92
2023-11-30T06:40:28.103Z,973.92
2023-11-30T06:41:28.023Z,973.89
2023-11-30T06:42:28.005Z,973.84
2023-11-30T06:43:27.849Z,973.85
2023-11-30T06:44:27.859Z,973.86
2023-11-30T06:45:27.769Z,973.86
2023-11-30T06:46:27.617Z,973.90
2023-11-30T06:47:27.552Z,973.90
2023-11-30T06:48:27.431Z,973.92
2023-11-30T06:49:27.309Z,973.93
2023-11-30T06:50:27.224Z,973.95
2023-11-30T06:51:27.173Z,973.95
2023-11-30T06:52:27.092Z,973.95
2023-11-30T06:53:26.959Z,973.95
2023-11-30T06:54:26.932Z,973.96
2023-11-30T06:55:26.788Z,973.97
2023-11-30T06:56:26.693Z,973.99
2023-11-30T06:57:26.688Z,973.99
2023-11-30T06:58:26.517Z,973.99
2023-11-30T06:59:26.425Z,974.01
2023-11-30T07:00:26.373Z,974.00
2023-11-30T07:01:26.262Z,974.01
2023-11-30T07:02:26.207Z,973.99
2023-11-30T07:03:26.238Z,974.01
2023-11-30T07:04:26.040Z,974.05
2023-11-30T07:05:25.897Z,974.03
2023-11-30T07:06:25.825Z,974.07
2023-11-30T07:07:33.767Z,974.05
2023-11-30T07:08:25.658Z,974.06
2023-11-30T07:09:25.597Z,974.06
2023-11-30T07:10:25.457Z,973.99
2023-11-30T07:11:25.366Z,974.04
2023-11-30T07:12:25.298Z,974.00
2023-11-30T07:13:25.339Z,973.97
2023-11-30T07:14:25.111Z,973.93
2023-11-30T07:15:25.052Z,973.95
2023-11-30T07:16:24.948Z,973.96
2023-11-30T07:17:25.254Z,973.91
2023-11-30T07:18:24.787Z,973.95
2023-11-30T07:19:24.665Z,973.97
2023-11-30T07:20:24.570Z,973.97
2023-11-30T07:21:24.534Z,973.93
2023-11-30T07:22:24.395Z,973.94
2023-11-30T07:23:24.316Z,973.91
2023-11-30T07:24:24.278Z,973.94
2023-11-30T07:25:24.127Z,973.96
2023-11-30T07:26:24.042Z,973.99
2023-11-30T07:27:24.005Z,973.99
2023-11-30T07:28:23.862Z,974.05
2023-11-30T07:29:26.349Z,974.06
2023-11-30T07:30:23.720Z,974.10
2023-11-30T07:31:23.643Z,974.07
2023-11-30T07:32:23.514Z,974.10
2023-11-30T07:33:23.447Z,974.12
2023-11-30T07:34:23.356Z,974.07
2023-11-30T07:35:23.246Z,974.03
2023-11-30T07:36:23.203Z,974.01
2023-11-30T07:37:23.062Z,974.02
2023-11-30T07:38:23.032Z,974.04
2023-11-30T07:39:22.908Z,974.06
2023-11-30T07:40:22.822Z,974.09
2023-11-30T07:41:22.710Z,974.07
2023-11-30T07:42:29.617Z,974.05
2023-11-30T07:43:22.534Z,974.08
2023-11-30T07:44:22.445Z,974.06
2023-11-30T07:45:22.424Z,974.10
2023-11-30T07:46:22.290Z,974.11
2023-11-30T07:47:22.182Z,974.09
2023-11-30T07:48:22.142Z,974.14
2023-11-30T07:49:22.006Z,974.14
2023-11-30T07:50:21.918Z,974.11
2023-11-30T07:51:21.842Z,974.11
2023-11-30T07:52:21.733Z,974.08
2023-11-30T07:53:21.653Z,974.06
2023-11-30T07:54:21.615Z,974.04
2023-11-30T07:55:21.472Z,974.02
2023-11-30T07:56:21.442Z,974.03
2023-11-30T07:57:21.339Z,974.05
2023-11-30T07:58:21.207Z,974.05
2023-11-30T07:59:21.122Z,974.03
2023-11-30T08:00:21.041Z,974.08
2023-11-30T08:01:20.945Z,974.10
2023-11-30T08:02:20.860Z,974.12
2023-11-30T08:03:20.972Z,974.16
2023-11-30T08:04:20.782Z,974.20
2023-11-30T08:05:20.592Z,974.21
2023-11-30T08:06:20.541Z,974.22
2023-11-30T08:07:20.405Z,974.23
2023-11-30T08:08:20.316Z,974.26
2023-11-30T08:09:20.230Z,974.23
2023-11-30T08:10:20.161Z,974.30
2023-11-30T08:11:20.071Z,974.25
2023-11-30T08:12:20.005Z,974.21
2023-11-30T08:13:19.872Z,974.21
2023-11-30T08:14:19.786Z,974.21
2023-11-30T08:15:19.760Z,974.24
2023-11-30T08:16:19.619Z,974.27
2023-11-30T08:17:19.522Z,974.26
2023-11-30T08:18:19.527Z,974.26
2023-11-30T08:19:19.378Z,974.24
2023-11-30T08:20:19.260Z,974.24
2023-11-30T08:21:19.209Z,974.26
2023-11-30T08:22:19.077Z,974.27
2023-11-30T08:23:19.092Z,974.27
2023-11-30T08:24:18.964Z,974.27
2023-11-30T08:25:18.811Z,974.25
2023-11-30T08:26:18.724Z,974.27
2023-11-30T08:27:18.655Z,974.30
2023-11-30T08:28:18.611Z,974.33
2023-11-30T08:29:18.458Z,974.36
2023-11-30T08:30:18.374Z,974.36
2023-11-30T08:31:18.339Z,974.39
2023-11-30T08:32:18.196Z,974.38
2023-11-30T08:33:18.189Z,974.42
2023-11-30T08:34:18.021Z,974.41
2023-11-30T08:35:17.932Z,974.43
2023-11-30T08:36:17.867Z,974.39
2023-11-30T08:37:17.766Z,974.43
2023-11-30T08:38:17.672Z,974.43
2023-11-30T08:39:17.807Z,974.41
2023-11-30T08:40:17.498Z,974.35
2023-11-30T08:41:17.411Z,974.32
2023-11-30T08:42:17.330Z,974.27
2023-11-30T08:43:17.237Z,974.18
2023-11-30T08:44:17.159Z,974.16
2023-11-30T08:45:17.079Z,974.15
2023-11-30T08:46:17.039Z,974.17
2023-11-30T08:47:16.896Z,974.19
2023-11-30T08:48:16.867Z,974.21
2023-11-30T08:49:16.702Z,974.26
2023-11-30T08:50:16.611Z,974.33
2023-11-30T08:51:16.543Z,974.33
2023-11-30T08:52:16.438Z,974.36
2023-11-30T08:53:16.649Z,974.36
2023-11-30T08:54:16.318Z,974.32
2023-11-30T08:55:16.173Z,974.36
2023-11-30T08:56:16.242Z,974.37
2023-11-30T08:57:16.027Z,974.36
2023-11-30T08:58:15.924Z,974.31
2023-11-30T08:59:15.825Z,974.29
2023-11-30T09:00:19.950Z,974.25
2023-11-30T09:01:15.677Z,974.16
2023-11-30T09:02:15.615Z,974.13
2023-11-30T09:03:15.496Z,974.12
2023-11-30T09:04:15.445Z,974.12
2023-11-30T09:05:15.306Z,974.08
2023-11-30T09:06:15.234Z,974.08
2023-11-30T09:07:15.128Z,974.08
2023-11-30T09:08:15.043Z,974.02
2023-11-30T09:09:14.969Z,974.07
2023-11-30T09:10:14.868Z,974.04
2023-11-30T09:11:14.780Z,974.07
2023-11-30T09:12:14.746Z,974.05
2023-11-30T09:13:14.606Z,974.07
2023-11-30T09:14:14.520Z,974.05
2023-11-30T09:15:14.478Z,974.05
2023-11-30T09:16:14.423Z,974.10
2023-11-30T09:17:14.267Z,974.09
2023-11-30T09:18:14.266Z,974.09
2023-11-30T09:19:14.086Z,974.10
2023-11-30T09:20:14.016Z,974.13
2023-11-30T09:21:13.961Z,974.13
2023-11-30T09:22:13.838Z,974.10
2023-11-30T09:23:13.736Z,974.12
2023-11-30T09:24:13.672Z,974.12
2023-11-30T09:25:13.564Z,974.14
2023-11-30T09:26:13.531Z,974.14
2023-11-30T09:27:13.442Z,974.18
2023-11-30T09:28:13.327Z,974.21
2023-11-30T09:29:13.220Z,974.21
2023-11-30T09:30:13.174Z,974.22
2023-11-30T09:31:13.086Z,974.18
2023-11-30T09:32:12.979Z,974.13
2023-11-30T09:33:12.965Z,974.13
2023-11-30T09:34:13.091Z,974.12
2023-11-30T09:35:12.785Z,974.11
2023-11-30T09:36:12.656Z,974.02
2023-11-30T09:37:12.532Z,973.98
2023-11-30T09:38:12.447Z,973.91
2023-11-30T09:39:12.407Z,973.86
2023-11-30T09:40:12.286Z,973.82
2023-11-30T09:41:12.189Z,973.79
2023-11-30T09:42:12.138Z,973.77
2023-11-30T09:43:12.028Z,973.74
2023-11-30T09:44:11.965Z,973.72
2023-11-30T09:45:12.018Z,973.74
2023-11-30T09:46:11.833Z,973.75
2023-11-30T09:47:11.675Z,973.79
2023-11-30T09:48:11.724Z,973.78
2023-11-30T09:49:11.500Z,973.78
2023-11-30T09:50:11.422Z,973.75
2023-11-30T09:51:11.358Z,973.74
2023-11-30T09:52:11.248Z,973.72
2023-11-30T09:53:11.166Z,973.70
2023-11-30T09:54:11.165Z,973.65
2023-11-30T09:55:12.685Z,973.67
2023-11-30T09:56:10.911Z,973.71
2023-11-30T09:57:10.953Z,973.72
2023-11-30T09:58:10.741Z,973.72
2023-11-30T09:59:10.674Z,973.69
2023-11-30T10:00:10.600Z,973.71
2023-11-30T10:01:10.561Z,973.75
2023-11-30T10:02:10.595Z,973.76
2023-11-30T10:03:10.451Z,973.73
2023-11-30T10:04:10.402Z,973.79
2023-11-30T10:06:02.636Z,973.80
2023-11-30T10:07:02.597Z,973.82
2023-11-30T10:08:02.468Z,973.82
2023-11-30T10:09:02.382Z,973.84
2023-11-30T10:10:02.301Z,973.86
2023-11-30T10:11:02.207Z,973.84
2023-11-30T10:12:04.977Z,973.82
2023-11-30T10:13:02.037Z,973.78
2023-11-30T10:14:02.263Z,973.75
2023-11-30T10:15:01.879Z,973.73
2023-11-30T10:16:02.182Z,973.70
2023-11-30T10:17:01.821Z,973.71
2023-11-30T10:18:01.699Z,973.75
2023-11-30T10:19:03.720Z,973.76
2023-11-30T10:20:01.495Z,973.71
2023-11-30T10:21:01.363Z,973.69
2023-11-30T10:22:01.287Z,973.68
2023-11-30T10:23:01.194Z,973.65
2023-11-30T10:24:01.113Z,973.62
2023-11-30T10:25:01.028Z,973.62
2023-11-30T10:26:00.941Z,973.61
2023-11-30T10:27:00.856Z,973.60
2023-11-30T10:28:00.774Z,973.58
2023-11-30T10:29:00.700Z,973.56
2023-11-30T10:30:00.645Z,973.57
2023-11-30T10:31:00.744Z,973.57
2023-11-30T10:32:00.450Z,973.52
2023-11-30T10:33:00.382Z,973.53
2023-11-30T10:34:00.503Z,973.55
2023-11-30T10:35:00.371Z,973.54
2023-11-30T10:36:00.203Z,973.54
2023-11-30T10:37:01.832Z,973.51
2023-11-30T10:37:59.938Z,973.51
2023-11-30T10:38:59.848Z,973.53
2023-11-30T10:39:59.766Z,973.52
2023-11-30T10:40:59.684Z,973.52
2023-11-30T10:41:59.603Z,973.48
2023-11-30T10:43:02.918Z,973.45
2023-11-30T10:43:59.549Z,973.45
2023-11-30T10:44:59.350Z,973.42
2023-11-30T10:45:59.274Z,973.43
2023-11-30T10:46:59.190Z,973.44
2023-11-30T10:47:59.109Z,973.42
2023-11-30T10:48:59.035Z,973.38
2023-11-30T10:49:58.929Z,973.38
2023-11-30T10:50:58.848Z,973.34
2023-11-30T10:52:02.091Z,973.38
2023-11-30T10:52:58.678Z,973.40
2023-11-30T10:53:58.593Z,973.35
2023-11-30T10:54:58.517Z,973.39
2023-11-30T10:55:58.434Z,973.37
2023-11-30T10:56:58.341Z,973.35
2023-11-30T10:57:58.714Z,973.33
2023-11-30T10:58:58.176Z,973.32
2023-11-30T10:59:58.093Z,973.30
2023-11-30T11:00:58.200Z,973.30
2023-11-30T11:01:57.999Z,973.27
2023-11-30T11:02:57.837Z,973.30
2023-11-30T11:03:57.831Z,973.31
2023-11-30T11:04:57.670Z,973.33
2023-11-30T11:05:57.596Z,973.35
2023-11-30T11:06:57.500Z,973.33
2023-11-30T11:07:57.453Z,973.34
2023-11-30T11:08:57.334Z,973.34
2023-11-30T11:09:59.341Z,973.29
2023-11-30T11:10:57.168Z,973.28
2023-11-30T11:11:57.090Z,973.28
2023-11-30T11:12:57.300Z,973.26
2023-11-30T11:13:56.934Z,973.28
2023-11-30T11:14:56.834Z,973.30
2023-11-30T11:15:56.846Z,973.30
2023-11-30T11:16:56.693Z,973.28
2023-11-30T11:17:56.613Z,973.29
2023-11-30T11:18:56.539Z,973.27
2023-11-30T11:19:56.414Z,973.25
2023-11-30T11:20:56.335Z,973.28
2023-11-30T11:21:56.256Z,973.28
2023-11-30T11:22:56.158Z,973.24
2023-11-30T11:23:56.103Z,973.28
2023-11-30T11:24:56.150Z,973.30
2023-11-30T11:25:56.112Z,973.30
2023-11-30T11:26:55.827Z,973.29
2023-11-30T11:27:55.761Z,973.28
2023-11-30T11:28:55.667Z,973.26
2023-11-30T11:29:55.596Z,973.25
2023-11-30T11:30:55.575Z,973.22
2023-11-30T11:31:55.420Z,973.22
2023-11-30T11:32:55.343Z,973.22
2023-11-30T11:33:55.276Z,973.24
2023-11-30T11:34:55.173Z,973.21
2023-11-30T11:35:55.081Z,973.15
2023-11-30T11:36:55.005Z,973.18
2023-11-30T11:37:56.726Z,973.17
2023-11-30T11:38:54.824Z,973.16
2023-11-30T11:39:54.768Z,973.15
2023-11-30T11:40:54.741Z,973.19
2023-11-30T11:41:54.594Z,973.15
2023-11-30T11:42:54.495Z,973.16
2023-11-30T11:43:54.418Z,973.15
2023-11-30T11:44:54.367Z,973.14
2023-11-30T11:45:54.296Z,973.12
2023-11-30T11:46:54.152Z,973.16
2023-11-30T11:47:54.133Z,973.14
2023-11-30T11:48:53.995Z,973.16
2023-11-30T11:49:53.902Z,973.16
2023-11-30T11:50:53.816Z,973.17
2023-11-30T11:51:53.783Z,973.16
2023-11-30T11:52:53.673Z,973.16
2023-11-30T11:53:53.562Z,973.22
2023-11-30T11:54:53.482Z,973.23
2023-11-30T11:55:53.458Z,973.19
2023-11-30T11:56:53.348Z,973.21
2023-11-30T11:57:53.355Z,973.14
2023-11-30T11:58:53.145Z,973.13
2023-11-30T11:59:53.062Z,973.08
2023-11-30T12:00:53.054Z,973.04
2023-11-30T12:01:53.004Z,973.02
2023-11-30T12:02:52.804Z,973.03
2023-11-30T12:03:52.789Z,973.05
2023-11-30T12:04:52.651Z,973.08
2023-11-30T12:05:52.614Z,973.11
2023-11-30T12:06:52.470Z,973.10
2023-11-30T12:07:52.483Z,973.07
2023-11-30T12:11:18.006Z,973.05
2023-11-30T12:12:17.883Z,973.01
2023-11-30T12:13:17.770Z,972.95
2023-11-30T12:14:17.677Z,972.93
2023-11-30T12:15:17.710Z,972.91
2023-11-30T12:16:17.541Z,972.87
2023-11-30T12:17:17.872Z,972.83
2023-11-30T12:18:17.398Z,972.81
2023-11-30T12:19:17.477Z,972.80
2023-11-30T12:20:17.172Z,972.76
2023-11-30T12:21:17.110Z,972.76
2023-11-30T12:22:17.003Z,972.76
2023-11-30T12:23:16.917Z,972.79
2023-11-30T12:24:16.864Z,972.76
2023-11-30T12:25:16.775Z,972.73
2023-11-30T12:26:16.663Z,972.78
2023-11-30T12:27:16.624Z,972.76
2023-11-30T12:28:16.692Z,972.71
2023-11-30T12:29:16.413Z,972.67
2023-11-30T12:30:16.366Z,972.63